Impacts METAR Board INFO
IDs:

KIAD - Washington/Dulles In, VA, US

Updated at: 1459 UTC 16 Dec 2017
Potential Impact None Slight Moderate High
Time16/02Z 16/03Z 16/04Z 16/05Z 16/06Z 16/07Z 16/08Z 16/09Z 16/10Z 16/11Z 16/12Z 16/13Z 16/14Z
VIS6 8 8 8 10 10 10 10 10 10 10 10 10
CIG55 60 60 60 60 60 50 60 -- -- 60 -- --
CoverBKNBKNBKNBKNOVCOVCOVCBKNFEWFEWBKNSCTFEW
FltCatVFRVFRVFRVFRVFRVFRVFRVFRVFRVFRVFRVFRVFR
WXBR------------------------
WDir180200190220210190250180210160200180190
WSpd3 7 8 6 6 6 4 3 6 6 7 4 10
WGst-- -- -- -- -- -- -- -- -- -- -- -- --
Raw hourly METARs
KIAD 160152Z 18003KT 6SM BR BKN055 M06/M06 A3000 RMK AO2 SLP161 I1000 T10561056
KIAD 160252Z 20007KT 8SM BKN060 M04/M05 A3000 RMK AO2 SLP160 I1000 I3000 T10441050 51009
KIAD 160352Z 19008KT 8SM BKN060 M05/M06 A3001 RMK AO2 SLP166 T10501056
KIAD 160452Z 22006KT 8SM BKN060 M04/M06 A3002 RMK AO2 SLP169 T10441056 410171067
KIAD 160552Z 21006KT 10SM OVC060 M03/M05 A3003 RMK AO2 SLP172 I6000 T10331050 11033 21067 51012
KIAD 160652Z 19006KT 10SM OVC060 M04/M05 A3004 RMK AO2 SLP177 T10391050
KIAD 160752Z 25004KT 10SM OVC050 M03/M05 A3007 RMK AO2 SLP186 T10281050
KIAD 160852Z 18003KT 10SM SCT045 BKN060 M02/M06 A3008 RMK AO2 SLP190 T10171061 53017
KIAD 160952Z 21006KT 10SM FEW060 M04/M07 A3009 RMK AO2 SLP193 T10441067
KIAD 161052Z 16006KT 10SM FEW050 M04/M07 A3012 RMK AO2 SLP204 T10441067
KIAD 161152Z 20007KT 10SM BKN060 M04/M07 A3012 RMK AO2 SLP204 70002 T10441067 11006 21050 51013
KIAD 161252Z 18004KT 10SM SCT055 SCT250 M05/M07 A3015 RMK AO2 SLP213 T10501067
KIAD 161352Z 19010KT 10SM FEW055 FEW120 M02/M06 A3014 RMK AO2 SLP210 T10221056